sensor_id;sensor_type;location;lat;lon;timestamp;P1;durP1;ratioP1;P2;durP2;ratioP2
4758;SDS011;2393;50.560;12.636;2023-04-25T00:02:17;6.63;;;3.47;;
4758;SDS011;2393;50.560;12.636;2023-04-25T00:04:47;6.17;;;3.73;;
4758;SDS011;2393;50.560;12.636;2023-04-25T00:07:16;13.30;;;3.73;;
4758;SDS011;2393;50.560;12.636;2023-04-25T00:09:44;7.00;;;3.67;;
4758;SDS011;2393;50.560;12.636;2023-04-25T00:12:12;4.63;;;3.83;;
4758;SDS011;2393;50.560;12.636;2023-04-25T00:14:42;4.13;;;3.00;;
4758;SDS011;2393;50.560;12.636;2023-04-25T00:17:11;3.50;;;3.20;;
4758;SDS011;2393;50.560;12.636;2023-04-25T00:19:39;4.57;;;3.57;;
4758;SDS011;2393;50.560;12.636;2023-04-25T00:22:09;5.73;;;3.37;;
4758;SDS011;2393;50.560;12.636;2023-04-25T00:24:38;4.00;;;3.23;;
4758;SDS011;2393;50.560;12.636;2023-04-25T00:27:06;3.00;;;2.80;;
4758;SDS011;2393;50.560;12.636;2023-04-25T00:29:34;8.07;;;3.10;;
4758;SDS011;2393;50.560;12.636;2023-04-25T00:32:02;3.50;;;3.20;;
4758;SDS011;2393;50.560;12.636;2023-04-25T00:34:31;8.63;;;2.93;;
4758;SDS011;2393;50.560;12.636;2023-04-25T00:36:59;8.13;;;3.67;;
4758;SDS011;2393;50.560;12.636;2023-04-25T00:39:30;5.83;;;3.57;;
4758;SDS011;2393;50.560;12.636;2023-04-25T00:41:58;4.80;;;4.13;;
4758;SDS011;2393;50.560;12.636;2023-04-25T00:44:27;5.43;;;3.63;;
4758;SDS011;2393;50.560;12.636;2023-04-25T00:46:56;7.40;;;3.40;;
4758;SDS011;2393;50.560;12.636;2023-04-25T00:49:25;3.50;;;3.07;;
4758;SDS011;2393;50.560;12.636;2023-04-25T00:51:54;5.90;;;2.90;;
4758;SDS011;2393;50.560;12.636;2023-04-25T00:54:22;5.97;;;3.73;;
4758;SDS011;2393;50.560;12.636;2023-04-25T00:56:52;7.63;;;4.23;;
4758;SDS011;2393;50.560;12.636;2023-04-25T00:59:20;4.27;;;3.47;;
4758;SDS011;2393;50.560;12.636;2023-04-25T01:01:48;5.27;;;3.80;;
4758;SDS011;2393;50.560;12.636;2023-04-25T01:04:17;6.70;;;3.33;;
4758;SDS011;2393;50.560;12.636;2023-04-25T01:06:45;7.43;;;3.10;;
4758;SDS011;2393;50.560;12.636;2023-04-25T01:09:13;5.67;;;2.90;;
4758;SDS011;2393;50.560;12.636;2023-04-25T01:11:44;3.87;;;3.10;;
4758;SDS011;2393;50.560;12.636;2023-04-25T01:14:14;3.90;;;3.50;;
4758;SDS011;2393;50.560;12.636;2023-04-25T01:16:42;7.30;;;3.47;;
4758;SDS011;2393;50.560;12.636;2023-04-25T01:19:11;3.43;;;3.13;;
4758;SDS011;2393;50.560;12.636;2023-04-25T01:21:46;4.03;;;3.13;;
4758;SDS011;2393;50.560;12.636;2023-04-25T01:24:15;6.17;;;3.67;;
4758;SDS011;2393;50.560;12.636;2023-04-25T01:26:44;9.80;;;3.60;;
4758;SDS011;2393;50.560;12.636;2023-04-25T01:29:20;3.40;;;3.20;;
4758;SDS011;2393;50.560;12.636;2023-04-25T01:31:49;6.73;;;3.77;;
4758;SDS011;2393;50.560;12.636;2023-04-25T01:34:19;7.67;;;3.57;;
4758;SDS011;2393;50.560;12.636;2023-04-25T01:36:50;6.40;;;4.00;;
4758;SDS011;2393;50.560;12.636;2023-04-25T01:39:18;6.47;;;4.50;;
4758;SDS011;2393;50.560;12.636;2023-04-25T01:41:47;7.13;;;3.53;;
4758;SDS011;2393;50.560;12.636;2023-04-25T01:44:16;4.20;;;3.07;;
4758;SDS011;2393;50.560;12.636;2023-04-25T01:46:44;6.17;;;4.00;;
4758;SDS011;2393;50.560;12.636;2023-04-25T01:49:12;4.80;;;3.23;;
4758;SDS011;2393;50.560;12.636;2023-04-25T01:51:42;5.13;;;3.87;;
4758;SDS011;2393;50.560;12.636;2023-04-25T01:54:12;4.20;;;3.70;;
4758;SDS011;2393;50.560;12.636;2023-04-25T01:56:41;10.07;;;3.83;;
4758;SDS011;2393;50.560;12.636;2023-04-25T01:59:11;8.43;;;3.60;;
4758;SDS011;2393;50.560;12.636;2023-04-25T02:01:58;4.07;;;3.27;;
4758;SDS011;2393;50.560;12.636;2023-04-25T02:04:31;6.90;;;3.60;;
4758;SDS011;2393;50.560;12.636;2023-04-25T02:07:01;5.20;;;3.63;;
4758;SDS011;2393;50.560;12.636;2023-04-25T02:09:42;6.20;;;3.80;;
4758;SDS011;2393;50.560;12.636;2023-04-25T02:12:11;9.20;;;3.63;;
4758;SDS011;2393;50.560;12.636;2023-04-25T02:14:54;4.10;;;3.80;;
4758;SDS011;2393;50.560;12.636;2023-04-25T02:17:34;4.60;;;3.90;;
4758;SDS011;2393;50.560;12.636;2023-04-25T02:20:02;5.37;;;3.53;;
4758;SDS011;2393;50.560;12.636;2023-04-25T02:22:31;7.90;;;4.73;;
4758;SDS011;2393;50.560;12.636;2023-04-25T02:25:01;5.63;;;3.77;;
4758;SDS011;2393;50.560;12.636;2023-04-25T02:27:31;5.93;;;4.67;;
4758;SDS011;2393;50.560;12.636;2023-04-25T02:29:59;7.23;;;4.37;;
4758;SDS011;2393;50.560;12.636;2023-04-25T02:32:27;9.17;;;4.83;;
4758;SDS011;2393;50.560;12.636;2023-04-25T02:34:55;9.07;;;5.10;;
4758;SDS011;2393;50.560;12.636;2023-04-25T02:37:25;8.50;;;5.47;;
4758;SDS011;2393;50.560;12.636;2023-04-25T02:39:53;11.83;;;4.50;;
4758;SDS011;2393;50.560;12.636;2023-04-25T02:42:23;7.00;;;4.97;;
4758;SDS011;2393;50.560;12.636;2023-04-25T02:44:51;4.17;;;3.80;;
4758;SDS011;2393;50.560;12.636;2023-04-25T02:47:19;5.40;;;4.00;;
4758;SDS011;2393;50.560;12.636;2023-04-25T02:49:49;9.10;;;5.10;;
4758;SDS011;2393;50.560;12.636;2023-04-25T02:52:17;14.87;;;5.43;;
4758;SDS011;2393;50.560;12.636;2023-04-25T02:54:52;6.00;;;4.33;;
4758;SDS011;2393;50.560;12.636;2023-04-25T02:57:20;7.77;;;4.90;;
4758;SDS011;2393;50.560;12.636;2023-04-25T02:59:49;8.70;;;5.37;;
4758;SDS011;2393;50.560;12.636;2023-04-25T03:02:17;5.23;;;4.80;;
4758;SDS011;2393;50.560;12.636;2023-04-25T03:04:45;6.60;;;5.13;;
4758;SDS011;2393;50.560;12.636;2023-04-25T03:07:14;6.40;;;4.70;;
4758;SDS011;2393;50.560;12.636;2023-04-25T03:09:42;6.90;;;5.43;;
4758;SDS011;2393;50.560;12.636;2023-04-25T03:12:11;5.87;;;4.40;;
4758;SDS011;2393;50.560;12.636;2023-04-25T03:14:39;5.50;;;4.20;;
4758;SDS011;2393;50.560;12.636;2023-04-25T03:17:08;6.93;;;4.10;;
4758;SDS011;2393;50.560;12.636;2023-04-25T03:19:36;7.80;;;4.13;;
4758;SDS011;2393;50.560;12.636;2023-04-25T03:22:04;10.00;;;4.20;;
4758;SDS011;2393;50.560;12.636;2023-04-25T03:24:34;6.13;;;4.03;;
4758;SDS011;2393;50.560;12.636;2023-04-25T03:27:03;8.40;;;4.70;;
4758;SDS011;2393;50.560;12.636;2023-04-25T03:29:31;5.33;;;4.17;;
4758;SDS011;2393;50.560;12.636;2023-04-25T03:32:02;8.37;;;4.07;;
4758;SDS011;2393;50.560;12.636;2023-04-25T03:34:32;6.10;;;4.37;;
4758;SDS011;2393;50.560;12.636;2023-04-25T03:37:00;5.23;;;3.83;;
4758;SDS011;2393;50.560;12.636;2023-04-25T03:39:33;6.67;;;4.00;;
4758;SDS011;2393;50.560;12.636;2023-04-25T03:42:01;8.90;;;4.13;;
4758;SDS011;2393;50.560;12.636;2023-04-25T03:44:30;9.17;;;5.13;;
4758;SDS011;2393;50.560;12.636;2023-04-25T03:46:59;5.30;;;4.17;;
4758;SDS011;2393;50.560;12.636;2023-04-25T03:49:28;5.43;;;4.57;;
4758;SDS011;2393;50.560;12.636;2023-04-25T03:52:01;8.03;;;4.80;;
4758;SDS011;2393;50.560;12.636;2023-04-25T03:54:34;6.63;;;3.60;;
4758;SDS011;2393;50.560;12.636;2023-04-25T03:57:09;9.17;;;4.70;;
4758;SDS011;2393;50.560;12.636;2023-04-25T03:59:38;9.60;;;5.10;;
4758;SDS011;2393;50.560;12.636;2023-04-25T04:02:09;8.70;;;4.97;;
4758;SDS011;2393;50.560;12.636;2023-04-25T04:04:39;5.57;;;4.10;;
4758;SDS011;2393;50.560;12.636;2023-04-25T04:07:09;5.90;;;4.50;;
4758;SDS011;2393;50.560;12.636;2023-04-25T04:09:40;5.50;;;4.43;;
4758;SDS011;2393;50.560;12.636;2023-04-25T04:12:13;7.23;;;4.93;;
4758;SDS011;2393;50.560;12.636;2023-04-25T04:14:42;6.37;;;4.47;;
4758;SDS011;2393;50.560;12.636;2023-04-25T04:17:10;8.53;;;4.57;;
4758;SDS011;2393;50.560;12.636;2023-04-25T04:19:39;4.73;;;4.23;;
4758;SDS011;2393;50.560;12.636;2023-04-25T04:22:11;5.53;;;3.73;;
4758;SDS011;2393;50.560;12.636;2023-04-25T04:24:39;6.20;;;4.70;;
4758;SDS011;2393;50.560;12.636;2023-04-25T04:27:11;6.70;;;4.10;;
4758;SDS011;2393;50.560;12.636;2023-04-25T04:29:59;6.67;;;4.67;;
4758;SDS011;2393;50.560;12.636;2023-04-25T04:32:36;5.87;;;4.67;;
4758;SDS011;2393;50.560;12.636;2023-04-25T04:35:05;9.20;;;4.60;;
4758;SDS011;2393;50.560;12.636;2023-04-25T04:37:36;6.10;;;4.40;;
4758;SDS011;2393;50.560;12.636;2023-04-25T04:40:07;8.03;;;4.40;;
4758;SDS011;2393;50.560;12.636;2023-04-25T04:42:41;5.40;;;4.43;;
4758;SDS011;2393;50.560;12.636;2023-04-25T04:45:20;6.63;;;4.63;;
4758;SDS011;2393;50.560;12.636;2023-04-25T04:48:04;6.80;;;4.07;;
4758;SDS011;2393;50.560;12.636;2023-04-25T04:50:37;6.40;;;4.37;;
4758;SDS011;2393;50.560;12.636;2023-04-25T04:53:19;6.10;;;4.37;;
4758;SDS011;2393;50.560;12.636;2023-04-25T04:56:06;11.10;;;4.87;;
4758;SDS011;2393;50.560;12.636;2023-04-25T04:58:52;8.93;;;4.60;;
4758;SDS011;2393;50.560;12.636;2023-04-25T05:01:47;10.53;;;4.93;;
4758;SDS011;2393;50.560;12.636;2023-04-25T05:04:39;11.07;;;5.70;;
4758;SDS011;2393;50.560;12.636;2023-04-25T05:07:23;8.07;;;5.57;;
4758;SDS011;2393;50.560;12.636;2023-04-25T05:10:10;13.53;;;6.80;;
4758;SDS011;2393;50.560;12.636;2023-04-25T05:13:04;11.10;;;7.07;;
4758;SDS011;2393;50.560;12.636;2023-04-25T05:15:43;11.53;;;6.30;;
4758;SDS011;2393;50.560;12.636;2023-04-25T05:18:34;8.53;;;5.67;;
4758;SDS011;2393;50.560;12.636;2023-04-25T05:21:28;7.17;;;5.10;;
4758;SDS011;2393;50.560;12.636;2023-04-25T05:24:20;15.30;;;8.07;;
4758;SDS011;2393;50.560;12.636;2023-04-25T05:27:12;12.73;;;6.67;;
4758;SDS011;2393;50.560;12.636;2023-04-25T05:30:04;13.17;;;6.87;;
4758;SDS011;2393;50.560;12.636;2023-04-25T05:32:44;14.57;;;5.60;;
4758;SDS011;2393;50.560;12.636;2023-04-25T05:35:13;11.60;;;5.93;;
4758;SDS011;2393;50.560;12.636;2023-04-25T05:37:46;10.00;;;5.73;;
4758;SDS011;2393;50.560;12.636;2023-04-25T05:40:14;10.30;;;4.87;;
4758;SDS011;2393;50.560;12.636;2023-04-25T05:43:05;10.40;;;5.43;;
4758;SDS011;2393;50.560;12.636;2023-04-25T05:45:52;7.00;;;4.87;;
4758;SDS011;2393;50.560;12.636;2023-04-25T05:48:40;11.60;;;4.50;;
4758;SDS011;2393;50.560;12.636;2023-04-25T05:51:18;12.30;;;5.17;;
4758;SDS011;2393;50.560;12.636;2023-04-25T05:53:57;8.83;;;3.83;;
4758;SDS011;2393;50.560;12.636;2023-04-25T05:56:26;6.33;;;4.00;;
4758;SDS011;2393;50.560;12.636;2023-04-25T05:58:56;10.93;;;4.00;;
4758;SDS011;2393;50.560;12.636;2023-04-25T06:01:25;12.90;;;4.37;;
4758;SDS011;2393;50.560;12.636;2023-04-25T06:03:53;4.80;;;3.33;;
4758;SDS011;2393;50.560;12.636;2023-04-25T06:06:22;5.00;;;3.67;;
4758;SDS011;2393;50.560;12.636;2023-04-25T06:08:50;6.90;;;4.20;;
4758;SDS011;2393;50.560;12.636;2023-04-25T06:11:18;6.90;;;4.83;;
4758;SDS011;2393;50.560;12.636;2023-04-25T06:13:46;5.93;;;4.40;;
4758;SDS011;2393;50.560;12.636;2023-04-25T06:16:17;8.13;;;3.30;;
4758;SDS011;2393;50.560;12.636;2023-04-25T06:18:45;4.60;;;3.17;;
4758;SDS011;2393;50.560;12.636;2023-04-25T06:21:14;3.90;;;3.50;;
4758;SDS011;2393;50.560;12.636;2023-04-25T06:23:42;4.77;;;3.77;;
4758;SDS011;2393;50.560;12.636;2023-04-25T06:26:17;10.50;;;3.70;;
4758;SDS011;2393;50.560;12.636;2023-04-25T06:28:46;6.43;;;3.07;;
4758;SDS011;2393;50.560;12.636;2023-04-25T06:31:14;5.80;;;3.90;;
4758;SDS011;2393;50.560;12.636;2023-04-25T06:33:45;4.90;;;3.27;;
4758;SDS011;2393;50.560;12.636;2023-04-25T06:36:14;10.03;;;2.70;;
4758;SDS011;2393;50.560;12.636;2023-04-25T06:38:46;6.40;;;3.57;;
4758;SDS011;2393;50.560;12.636;2023-04-25T06:41:14;3.20;;;2.83;;
4758;SDS011;2393;50.560;12.636;2023-04-25T06:43:42;2.93;;;2.60;;
4758;SDS011;2393;50.560;12.636;2023-04-25T06:46:24;7.03;;;2.90;;
4758;SDS011;2393;50.560;12.636;2023-04-25T06:48:53;2.22;;;2.03;;
4758;SDS011;2393;50.560;12.636;2023-04-25T06:51:21;3.87;;;2.30;;
4758;SDS011;2393;50.560;12.636;2023-04-25T06:53:52;3.10;;;2.20;;
4758;SDS011;2393;50.560;12.636;2023-04-25T06:56:29;1.95;;;1.85;;
4758;SDS011;2393;50.560;12.636;2023-04-25T06:59:15;2.33;;;2.13;;
4758;SDS011;2393;50.560;12.636;2023-04-25T07:01:46;2.45;;;2.10;;
4758;SDS011;2393;50.560;12.636;2023-04-25T07:04:17;2.50;;;2.30;;
4758;SDS011;2393;50.560;12.636;2023-04-25T07:06:55;4.20;;;2.55;;
4758;SDS011;2393;50.560;12.636;2023-04-25T07:09:31;2.77;;;2.57;;
4758;SDS011;2393;50.560;12.636;2023-04-25T07:12:00;2.67;;;2.57;;
4758;SDS011;2393;50.560;12.636;2023-04-25T07:14:29;5.60;;;3.10;;
4758;SDS011;2393;50.560;12.636;2023-04-25T07:16:58;2.00;;;1.90;;
4758;SDS011;2393;50.560;12.636;2023-04-25T07:19:29;2.00;;;1.90;;
4758;SDS011;2393;50.560;12.636;2023-04-25T07:21:59;6.97;;;3.10;;
4758;SDS011;2393;50.560;12.636;2023-04-25T07:24:29;6.20;;;2.80;;
4758;SDS011;2393;50.560;12.636;2023-04-25T07:26:57;3.33;;;3.03;;
4758;SDS011;2393;50.560;12.636;2023-04-25T07:29:33;5.87;;;1.80;;
4758;SDS011;2393;50.560;12.636;2023-04-25T07:32:05;2.40;;;2.20;;
4758;SDS011;2393;50.560;12.636;2023-04-25T07:34:34;2.17;;;2.07;;
4758;SDS011;2393;50.560;12.636;2023-04-25T07:37:05;4.70;;;2.60;;
4758;SDS011;2393;50.560;12.636;2023-04-25T07:39:42;5.33;;;2.67;;
4758;SDS011;2393;50.560;12.636;2023-04-25T07:42:10;5.50;;;2.83;;
4758;SDS011;2393;50.560;12.636;2023-04-25T07:44:41;3.60;;;2.70;;
4758;SDS011;2393;50.560;12.636;2023-04-25T07:47:13;4.73;;;2.80;;
4758;SDS011;2393;50.560;12.636;2023-04-25T07:49:41;8.70;;;2.93;;
4758;SDS011;2393;50.560;12.636;2023-04-25T07:52:10;4.60;;;2.73;;
4758;SDS011;2393;50.560;12.636;2023-04-25T07:54:43;4.83;;;3.23;;
4758;SDS011;2393;50.560;12.636;2023-04-25T07:57:16;4.77;;;2.83;;
4758;SDS011;2393;50.560;12.636;2023-04-25T07:59:46;3.53;;;2.60;;
4758;SDS011;2393;50.560;12.636;2023-04-25T08:02:16;5.10;;;3.30;;
4758;SDS011;2393;50.560;12.636;2023-04-25T08:04:44;9.17;;;3.10;;
4758;SDS011;2393;50.560;12.636;2023-04-25T08:07:16;3.30;;;2.93;;
4758;SDS011;2393;50.560;12.636;2023-04-25T08:09:49;3.30;;;3.00;;
4758;SDS011;2393;50.560;12.636;2023-04-25T08:12:23;5.03;;;3.20;;
4758;SDS011;2393;50.560;12.636;2023-04-25T08:14:52;4.40;;;3.00;;
4758;SDS011;2393;50.560;12.636;2023-04-25T08:17:23;3.50;;;3.20;;
4758;SDS011;2393;50.560;12.636;2023-04-25T08:19:51;10.67;;;3.57;;
4758;SDS011;2393;50.560;12.636;2023-04-25T08:22:28;4.20;;;2.87;;
4758;SDS011;2393;50.560;12.636;2023-04-25T08:25:13;5.27;;;2.77;;
4758;SDS011;2393;50.560;12.636;2023-04-25T08:27:41;3.10;;;2.77;;
4758;SDS011;2393;50.560;12.636;2023-04-25T08:30:11;4.93;;;2.70;;
4758;SDS011;2393;50.560;12.636;2023-04-25T08:32:42;3.37;;;2.90;;
4758;SDS011;2393;50.560;12.636;2023-04-25T08:35:22;10.40;;;3.73;;
4758;SDS011;2393;50.560;12.636;2023-04-25T08:37:50;4.40;;;2.90;;
4758;SDS011;2393;50.560;12.636;2023-04-25T08:40:19;3.67;;;3.37;;
4758;SDS011;2393;50.560;12.636;2023-04-25T08:42:54;4.87;;;3.20;;
4758;SDS011;2393;50.560;12.636;2023-04-25T08:45:24;6.13;;;3.50;;
4758;SDS011;2393;50.560;12.636;2023-04-25T08:47:56;5.90;;;4.30;;
4758;SDS011;2393;50.560;12.636;2023-04-25T08:50:25;4.50;;;3.73;;
4758;SDS011;2393;50.560;12.636;2023-04-25T08:52:53;10.23;;;3.93;;
4758;SDS011;2393;50.560;12.636;2023-04-25T08:55:24;12.87;;;4.47;;
4758;SDS011;2393;50.560;12.636;2023-04-25T08:57:58;4.70;;;3.73;;
4758;SDS011;2393;50.560;12.636;2023-04-25T09:00:28;8.90;;;4.87;;
4758;SDS011;2393;50.560;12.636;2023-04-25T09:02:58;5.47;;;4.37;;
4758;SDS011;2393;50.560;12.636;2023-04-25T09:05:30;6.73;;;3.90;;
4758;SDS011;2393;50.560;12.636;2023-04-25T09:07:59;6.03;;;4.33;;
4758;SDS011;2393;50.560;12.636;2023-04-25T09:10:28;11.23;;;4.73;;
4758;SDS011;2393;50.560;12.636;2023-04-25T09:13:05;8.00;;;4.47;;
4758;SDS011;2393;50.560;12.636;2023-04-25T09:15:54;8.37;;;4.10;;
4758;SDS011;2393;50.560;12.636;2023-04-25T09:18:38;9.73;;;3.93;;
4758;SDS011;2393;50.560;12.636;2023-04-25T09:21:13;5.83;;;3.87;;
4758;SDS011;2393;50.560;12.636;2023-04-25T09:23:45;10.57;;;3.27;;
4758;SDS011;2393;50.560;12.636;2023-04-25T09:26:16;8.90;;;3.53;;
4758;SDS011;2393;50.560;12.636;2023-04-25T09:28:46;6.97;;;3.53;;
4758;SDS011;2393;50.560;12.636;2023-04-25T09:31:21;7.73;;;4.20;;
4758;SDS011;2393;50.560;12.636;2023-04-25T09:33:59;3.70;;;3.00;;
4758;SDS011;2393;50.560;12.636;2023-04-25T09:36:37;4.93;;;2.83;;
4758;SDS011;2393;50.560;12.636;2023-04-25T09:39:21;5.63;;;2.33;;
4758;SDS011;2393;50.560;12.636;2023-04-25T09:42:00;3.90;;;2.90;;
4758;SDS011;2393;50.560;12.636;2023-04-25T09:44:30;7.07;;;3.10;;
4758;SDS011;2393;50.560;12.636;2023-04-25T09:46:59;9.93;;;2.80;;
4758;SDS011;2393;50.560;12.636;2023-04-25T09:49:32;6.13;;;2.90;;
4758;SDS011;2393;50.560;12.636;2023-04-25T09:52:06;3.23;;;2.27;;
4758;SDS011;2393;50.560;12.636;2023-04-25T09:54:45;5.50;;;2.67;;
4758;SDS011;2393;50.560;12.636;2023-04-25T09:57:19;7.73;;;2.37;;
4758;SDS011;2393;50.560;12.636;2023-04-25T09:59:48;2.33;;;2.20;;
4758;SDS011;2393;50.560;12.636;2023-04-25T10:02:18;3.47;;;2.50;;
4758;SDS011;2393;50.560;12.636;2023-04-25T10:04:52;2.50;;;2.30;;
4758;SDS011;2393;50.560;12.636;2023-04-25T10:07:29;5.57;;;2.40;;
4758;SDS011;2393;50.560;12.636;2023-04-25T10:09:59;1.87;;;1.60;;
4758;SDS011;2393;50.560;12.636;2023-04-25T10:12:29;2.80;;;2.30;;
4758;SDS011;2393;50.560;12.636;2023-04-25T10:14:58;5.43;;;1.50;;
4758;SDS011;2393;50.560;12.636;2023-04-25T10:17:27;2.87;;;1.20;;
4758;SDS011;2393;50.560;12.636;2023-04-25T10:19:57;1.33;;;1.20;;
4758;SDS011;2393;50.560;12.636;2023-04-25T10:22:29;1.27;;;1.20;;
4758;SDS011;2393;50.560;12.636;2023-04-25T10:25:01;0.97;;;0.97;;
4758;SDS011;2393;50.560;12.636;2023-04-25T10:27:31;1.57;;;1.47;;
4758;SDS011;2393;50.560;12.636;2023-04-25T10:30:01;4.33;;;1.57;;
4758;SDS011;2393;50.560;12.636;2023-04-25T10:32:31;1.20;;;1.17;;
4758;SDS011;2393;50.560;12.636;2023-04-25T10:35:11;1.10;;;1.07;;
4758;SDS011;2393;50.560;12.636;2023-04-25T10:37:57;1.17;;;1.07;;
4758;SDS011;2393;50.560;12.636;2023-04-25T10:40:26;1.83;;;1.73;;
4758;SDS011;2393;50.560;12.636;2023-04-25T10:42:55;4.00;;;2.50;;
4758;SDS011;2393;50.560;12.636;2023-04-25T10:45:53;2.07;;;1.97;;
4758;SDS011;2393;50.560;12.636;2023-04-25T10:48:25;5.07;;;1.77;;
4758;SDS011;2393;50.560;12.636;2023-04-25T10:51:06;8.47;;;2.00;;
4758;SDS011;2393;50.560;12.636;2023-04-25T10:53:34;3.70;;;3.13;;
4758;SDS011;2393;50.560;12.636;2023-04-25T10:56:09;5.23;;;2.67;;
4758;SDS011;2393;50.560;12.636;2023-04-25T10:58:43;3.60;;;3.27;;
4758;SDS011;2393;50.560;12.636;2023-04-25T11:01:13;5.70;;;2.80;;
4758;SDS011;2393;50.560;12.636;2023-04-25T11:03:42;3.37;;;3.00;;
4758;SDS011;2393;50.560;12.636;2023-04-25T11:06:15;7.07;;;3.13;;
4758;SDS011;2393;50.560;12.636;2023-04-25T11:08:50;6.10;;;2.63;;
4758;SDS011;2393;50.560;12.636;2023-04-25T11:11:19;3.50;;;2.80;;
4758;SDS011;2393;50.560;12.636;2023-04-25T11:13:47;4.30;;;3.03;;
4758;SDS011;2393;50.560;12.636;2023-04-25T11:16:17;2.67;;;2.43;;
4758;SDS011;2393;50.560;12.636;2023-04-25T11:18:56;3.20;;;2.90;;
4758;SDS011;2393;50.560;12.636;2023-04-25T11:21:24;2.67;;;2.47;;
4758;SDS011;2393;50.560;12.636;2023-04-25T11:23:54;3.70;;;2.73;;
4758;SDS011;2393;50.560;12.636;2023-04-25T11:26:24;3.77;;;2.53;;
4758;SDS011;2393;50.560;12.636;2023-04-25T11:28:55;5.97;;;3.40;;
4758;SDS011;2393;50.560;12.636;2023-04-25T11:31:28;5.63;;;3.03;;
4758;SDS011;2393;50.560;12.636;2023-04-25T11:33:57;3.07;;;2.77;;
4758;SDS011;2393;50.560;12.636;2023-04-25T11:36:25;2.90;;;2.33;;
4758;SDS011;2393;50.560;12.636;2023-04-25T11:38:53;4.73;;;4.07;;
4758;SDS011;2393;50.560;12.636;2023-04-25T11:41:21;5.10;;;2.53;;
4758;SDS011;2393;50.560;12.636;2023-04-25T11:43:50;3.33;;;2.63;;
4758;SDS011;2393;50.560;12.636;2023-04-25T11:46:18;11.13;;;5.23;;
4758;SDS011;2393;50.560;12.636;2023-04-25T11:48:48;9.53;;;3.33;;
4758;SDS011;2393;50.560;12.636;2023-04-25T11:51:17;6.17;;;3.70;;
4758;SDS011;2393;50.560;12.636;2023-04-25T11:53:45;3.80;;;2.37;;
4758;SDS011;2393;50.560;12.636;2023-04-25T11:56:13;7.27;;;3.60;;
4758;SDS011;2393;50.560;12.636;2023-04-25T11:58:54;2.23;;;2.00;;
4758;SDS011;2393;50.560;12.636;2023-04-25T12:01:26;4.07;;;3.03;;
4758;SDS011;2393;50.560;12.636;2023-04-25T12:04:10;2.30;;;2.20;;
4758;SDS011;2393;50.560;12.636;2023-04-25T12:06:40;9.33;;;2.40;;
4758;SDS011;2393;50.560;12.636;2023-04-25T12:09:10;2.80;;;2.63;;
4758;SDS011;2393;50.560;12.636;2023-04-25T12:11:42;3.10;;;2.53;;
4758;SDS011;2393;50.560;12.636;2023-04-25T12:14:12;2.50;;;2.30;;
4758;SDS011;2393;50.560;12.636;2023-04-25T12:16:48;3.37;;;2.57;;
4758;SDS011;2393;50.560;12.636;2023-04-25T12:19:19;2.67;;;2.43;;
4758;SDS011;2393;50.560;12.636;2023-04-25T12:21:48;3.10;;;2.67;;
4758;SDS011;2393;50.560;12.636;2023-04-25T12:24:25;2.70;;;2.30;;
4758;SDS011;2393;50.560;12.636;2023-04-25T12:26:58;2.10;;;1.90;;
4758;SDS011;2393;50.560;12.636;2023-04-25T12:29:29;3.23;;;2.30;;
4758;SDS011;2393;50.560;12.636;2023-04-25T12:32:13;2.63;;;2.43;;
4758;SDS011;2393;50.560;12.636;2023-04-25T12:34:43;3.00;;;2.80;;
4758;SDS011;2393;50.560;12.636;2023-04-25T12:37:11;6.70;;;3.13;;
4758;SDS011;2393;50.560;12.636;2023-04-25T12:39:39;3.33;;;2.80;;
4758;SDS011;2393;50.560;12.636;2023-04-25T12:42:07;2.83;;;2.50;;
4758;SDS011;2393;50.560;12.636;2023-04-25T12:44:38;3.70;;;2.83;;
4758;SDS011;2393;50.560;12.636;2023-04-25T12:47:07;2.70;;;2.50;;
4758;SDS011;2393;50.560;12.636;2023-04-25T12:49:36;3.80;;;2.50;;
4758;SDS011;2393;50.560;12.636;2023-04-25T12:52:05;4.47;;;2.37;;
4758;SDS011;2393;50.560;12.636;2023-04-25T12:54:33;3.23;;;3.00;;
4758;SDS011;2393;50.560;12.636;2023-04-25T12:57:02;4.07;;;2.20;;
4758;SDS011;2393;50.560;12.636;2023-04-25T12:59:30;2.07;;;1.87;;
4758;SDS011;2393;50.560;12.636;2023-04-25T13:01:58;3.00;;;2.03;;
4758;SDS011;2393;50.560;12.636;2023-04-25T13:04:26;5.20;;;2.50;;
4758;SDS011;2393;50.560;12.636;2023-04-25T13:06:54;2.27;;;2.07;;
4758;SDS011;2393;50.560;12.636;2023-04-25T13:09:24;4.03;;;2.63;;
4758;SDS011;2393;50.560;12.636;2023-04-25T13:11:52;5.77;;;3.43;;
4758;SDS011;2393;50.560;12.636;2023-04-25T13:14:24;3.37;;;3.13;;
4758;SDS011;2393;50.560;12.636;2023-04-25T13:16:52;3.23;;;2.93;;
4758;SDS011;2393;50.560;12.636;2023-04-25T13:19:20;6.00;;;4.40;;
4758;SDS011;2393;50.560;12.636;2023-04-25T13:21:50;5.17;;;3.20;;
4758;SDS011;2393;50.560;12.636;2023-04-25T13:24:18;3.77;;;2.90;;
4758;SDS011;2393;50.560;12.636;2023-04-25T13:26:48;7.47;;;3.60;;
4758;SDS011;2393;50.560;12.636;2023-04-25T13:29:16;5.43;;;3.10;;
4758;SDS011;2393;50.560;12.636;2023-04-25T13:31:44;4.93;;;2.90;;
4758;SDS011;2393;50.560;12.636;2023-04-25T13:34:12;2.73;;;2.53;;
4758;SDS011;2393;50.560;12.636;2023-04-25T13:36:40;3.60;;;2.70;;
4758;SDS011;2393;50.560;12.636;2023-04-25T13:39:08;7.93;;;3.80;;
4758;SDS011;2393;50.560;12.636;2023-04-25T13:41:37;4.20;;;2.73;;
4758;SDS011;2393;50.560;12.636;2023-04-25T13:44:07;5.20;;;3.00;;
4758;SDS011;2393;50.560;12.636;2023-04-25T13:46:35;4.30;;;2.80;;
4758;SDS011;2393;50.560;12.636;2023-04-25T13:49:06;5.13;;;2.90;;
4758;SDS011;2393;50.560;12.636;2023-04-25T13:51:38;7.60;;;3.30;;
4758;SDS011;2393;50.560;12.636;2023-04-25T13:54:06;3.80;;;2.40;;
4758;SDS011;2393;50.560;12.636;2023-04-25T13:56:35;5.90;;;2.53;;
4758;SDS011;2393;50.560;12.636;2023-04-25T13:59:03;7.80;;;2.60;;
4758;SDS011;2393;50.560;12.636;2023-04-25T14:01:32;4.60;;;3.40;;
4758;SDS011;2393;50.560;12.636;2023-04-25T14:04:02;4.80;;;3.37;;
4758;SDS011;2393;50.560;12.636;2023-04-25T14:06:31;6.27;;;3.60;;
4758;SDS011;2393;50.560;12.636;2023-04-25T14:08:59;5.17;;;2.77;;
4758;SDS011;2393;50.560;12.636;2023-04-25T14:11:28;7.43;;;3.70;;
4758;SDS011;2393;50.560;12.636;2023-04-25T14:13:56;13.40;;;3.17;;
4758;SDS011;2393;50.560;12.636;2023-04-25T14:16:24;5.73;;;3.10;;
4758;SDS011;2393;50.560;12.636;2023-04-25T14:18:54;5.23;;;2.97;;
4758;SDS011;2393;50.560;12.636;2023-04-25T14:21:22;6.60;;;2.60;;
4758;SDS011;2393;50.560;12.636;2023-04-25T14:23:51;6.37;;;2.67;;
4758;SDS011;2393;50.560;12.636;2023-04-25T14:26:19;11.23;;;2.60;;
4758;SDS011;2393;50.560;12.636;2023-04-25T14:28:47;7.93;;;2.87;;
4758;SDS011;2393;50.560;12.636;2023-04-25T14:31:15;6.73;;;2.60;;
4758;SDS011;2393;50.560;12.636;2023-04-25T14:33:44;8.10;;;2.90;;
4758;SDS011;2393;50.560;12.636;2023-04-25T14:36:14;3.00;;;2.80;;
4758;SDS011;2393;50.560;12.636;2023-04-25T14:38:42;3.13;;;2.33;;
4758;SDS011;2393;50.560;12.636;2023-04-25T14:41:12;10.17;;;2.93;;
4758;SDS011;2393;50.560;12.636;2023-04-25T14:43:40;7.20;;;3.00;;
4758;SDS011;2393;50.560;12.636;2023-04-25T14:46:10;7.00;;;2.90;;
4758;SDS011;2393;50.560;12.636;2023-04-25T14:48:38;4.10;;;2.43;;
4758;SDS011;2393;50.560;12.636;2023-04-25T14:51:06;2.33;;;2.10;;
4758;SDS011;2393;50.560;12.636;2023-04-25T14:53:36;3.73;;;2.00;;
4758;SDS011;2393;50.560;12.636;2023-04-25T14:56:05;4.30;;;2.30;;
4758;SDS011;2393;50.560;12.636;2023-04-25T14:58:33;3.70;;;2.13;;
4758;SDS011;2393;50.560;12.636;2023-04-25T15:01:01;6.40;;;2.17;;
4758;SDS011;2393;50.560;12.636;2023-04-25T15:03:30;6.00;;;2.40;;
4758;SDS011;2393;50.560;12.636;2023-04-25T15:05:58;8.53;;;2.67;;
4758;SDS011;2393;50.560;12.636;2023-04-25T15:08:27;14.07;;;4.90;;
4758;SDS011;2393;50.560;12.636;2023-04-25T15:10:56;8.93;;;4.40;;
4758;SDS011;2393;50.560;12.636;2023-04-25T15:13:24;9.33;;;3.83;;
4758;SDS011;2393;50.560;12.636;2023-04-25T15:15:53;6.60;;;2.30;;
4758;SDS011;2393;50.560;12.636;2023-04-25T15:18:21;9.70;;;1.63;;
4758;SDS011;2393;50.560;12.636;2023-04-25T15:20:50;9.73;;;2.07;;
4758;SDS011;2393;50.560;12.636;2023-04-25T15:23:19;4.00;;;2.20;;
4758;SDS011;2393;50.560;12.636;2023-04-25T15:25:49;6.60;;;1.97;;
4758;SDS011;2393;50.560;12.636;2023-04-25T15:28:19;6.13;;;1.73;;